createdAt,value
2019-02-02T00:00:37.185Z,9.51
2019-02-02T00:05:34.214Z,9.63
2019-02-02T00:10:31.148Z,9.49
2019-02-02T00:15:28.246Z,9.55
2019-02-02T00:20:25.544Z,9.59
2019-02-02T00:25:22.507Z,9.54
2019-02-02T00:30:19.640Z,9.58
2019-02-02T00:35:16.553Z,9.49
2019-02-02T00:40:16.929Z,9.56
2019-02-02T00:45:22.057Z,9.56
2019-02-02T00:50:19.257Z,9.58
2019-02-02T00:55:19.938Z,9.71
2019-02-02T01:00:23.344Z,9.74
2019-02-02T01:05:22.193Z,9.88
2019-02-02T01:10:26.890Z,9.90
2019-02-02T01:15:23.981Z,9.85
2019-02-02T01:20:21.633Z,9.83
2019-02-02T01:25:18.541Z,9.91
2019-02-02T01:30:24.037Z,9.94
2019-02-02T01:35:21.254Z,9.70
2019-02-02T01:40:22.278Z,9.77
2019-02-02T01:45:27.758Z,9.84
2019-02-02T01:50:28.536Z,9.88
2019-02-02T01:55:25.737Z,9.79
2019-02-02T02:00:31.818Z,9.93
2019-02-02T02:05:30.169Z,9.86
2019-02-02T02:10:27.112Z,9.84
2019-02-02T02:15:24.010Z,9.61
2019-02-02T02:20:23.874Z,9.72
2019-02-02T02:25:20.165Z,9.73
2019-02-02T02:30:20.616Z,9.57
2019-02-02T02:35:17.543Z,9.84
2019-02-02T02:40:17.649Z,9.79
2019-02-02T02:45:15.064Z,9.52
2019-02-02T02:50:20.157Z,9.54
2019-02-02T02:55:17.082Z,9.51
2019-02-02T03:00:21.178Z,9.49
2019-02-02T03:05:18.380Z,9.49
2019-02-02T03:10:22.332Z,9.24
2019-02-02T03:15:19.521Z,9.63
2019-02-02T03:20:16.594Z,9.59
2019-02-02T03:25:22.688Z,9.58
2019-02-02T03:30:20.926Z,9.54
2019-02-02T03:35:22.012Z,9.55
2019-02-02T03:40:21.618Z,9.58
2019-02-02T03:45:23.474Z,9.41
2019-02-02T03:50:20.489Z,9.38
2019-02-02T03:55:17.553Z,9.40
2019-02-02T04:00:20.683Z,9.49
2019-02-02T04:05:24.161Z,9.54
2019-02-02T04:10:21.721Z,9.52
2019-02-02T04:15:20.541Z,9.61
2019-02-02T04:20:21.686Z,9.77
2019-02-02T04:25:21.995Z,9.69
2019-02-02T04:30:26.104Z,9.74
2019-02-02T04:35:23.226Z,9.60
2019-02-02T04:40:20.374Z,9.90
2019-02-02T04:45:17.492Z,9.73
2019-02-02T04:50:19.396Z,9.66
2019-02-02T04:55:18.190Z,9.79
2019-02-02T05:00:19.803Z,9.64
2019-02-02T05:05:17.793Z,9.99
2019-02-02T05:10:17.862Z,9.61
2019-02-02T05:15:15.185Z,9.86
2019-02-02T05:20:15.011Z,9.96
2019-02-02T05:25:12.328Z,9.90
2019-02-02T05:30:14.672Z,9.81
2019-02-02T05:35:11.675Z,9.75
2019-02-02T05:40:15.314Z,9.85
2019-02-02T05:45:18.477Z,9.75
2019-02-02T05:50:20.914Z,9.83
2019-02-02T05:55:20.130Z,9.99
2019-02-02T06:00:28.065Z,10.06
2019-02-02T06:05:24.983Z,10.00
2019-02-02T06:10:21.921Z,10.10
2019-02-02T06:15:19.700Z,9.92
2019-02-02T06:20:16.872Z,9.66
2019-02-02T06:25:14.976Z,9.97
2019-02-02T06:30:21.694Z,10.12
2019-02-02T06:35:19.247Z,9.94
2019-02-02T06:40:16.736Z,10.26
2019-02-02T06:45:24.097Z,10.18
2019-02-02T06:50:21.001Z,10.22
2019-02-02T06:55:17.969Z,10.35
2019-02-02T07:00:26.556Z,10.30
2019-02-02T07:05:25.316Z,10.56
2019-02-02T07:10:26.299Z,10.50
2019-02-02T07:15:29.227Z,10.64
2019-02-02T07:20:26.341Z,10.57
2019-02-02T07:25:23.294Z,10.70
2019-02-02T07:30:28.739Z,10.83
2019-02-02T07:35:22.347Z,10.73
2019-02-02T07:40:20.972Z,10.68
2019-02-02T07:45:31.073Z,10.86
2019-02-02T07:50:27.993Z,10.76
2019-02-02T07:55:25.096Z,10.93
2019-02-02T08:00:25.596Z,11.02
2019-02-02T08:05:22.648Z,11.04
2019-02-02T08:10:19.538Z,10.80
2019-02-02T08:15:24.244Z,10.88
2019-02-02T08:20:21.992Z,10.88
2019-02-02T08:25:19.025Z,10.79
2019-02-02T08:30:28.717Z,10.83
2019-02-02T08:35:25.612Z,10.84
2019-02-02T08:40:22.653Z,10.68
2019-02-02T08:45:19.756Z,10.58
2019-02-02T08:50:29.801Z,10.69
2019-02-02T08:55:26.755Z,10.87
2019-02-02T09:00:23.750Z,10.97
2019-02-02T09:05:22.463Z,11.07
2019-02-02T09:10:22.421Z,11.13
2019-02-02T09:15:19.717Z,11.19
2019-02-02T09:20:16.647Z,11.20
2019-02-02T09:25:16.129Z,11.31
2019-02-02T09:30:31.632Z,11.52
2019-02-02T09:35:28.645Z,11.49
2019-02-02T09:40:25.915Z,11.60
2019-02-02T09:45:23.869Z,11.77
2019-02-02T09:50:25.812Z,11.67
2019-02-02T09:55:24.606Z,11.90
2019-02-02T10:00:25.767Z,11.79
2019-02-02T10:05:22.675Z,11.92
2019-02-02T10:10:32.034Z,11.65
2019-02-02T10:15:29.054Z,11.71
2019-02-02T10:20:28.706Z,12.04
2019-02-02T10:25:29.215Z,12.19
2019-02-02T10:30:33.605Z,12.23
2019-02-02T10:35:31.020Z,11.96
2019-02-02T10:40:30.030Z,12.04
2019-02-02T10:45:26.856Z,11.72
2019-02-02T10:50:26.679Z,11.98
2019-02-02T10:55:23.604Z,12.07
2019-02-02T11:00:28.888Z,12.06
2019-02-02T11:05:25.879Z,12.05
2019-02-02T11:10:29.667Z,12.41
2019-02-02T11:15:26.869Z,12.34
2019-02-02T11:20:34.114Z,12.49
2019-02-02T11:25:32.098Z,12.47
2019-02-02T11:30:30.212Z,12.26
2019-02-02T11:35:27.183Z,12.43
2019-02-02T11:40:27.119Z,12.21
2019-02-02T11:45:24.142Z,11.93
2019-02-02T11:50:21.918Z,12.04
2019-02-02T11:55:21.608Z,11.86
2019-02-02T12:00:29.866Z,12.26
2019-02-02T12:05:27.141Z,12.32
2019-02-02T12:10:30.598Z,12.58
2019-02-02T12:15:27.510Z,12.77
2019-02-02T12:20:24.758Z,12.85
2019-02-02T12:25:21.843Z,12.86
2019-02-02T12:30:32.874Z,12.81
2019-02-02T12:35:29.802Z,12.54
2019-02-02T12:40:27.139Z,12.46
2019-02-02T12:45:34.466Z,12.41
2019-02-02T12:50:31.371Z,12.51
2019-02-02T12:55:28.410Z,12.38
2019-02-02T13:00:25.349Z,12.34
2019-02-02T13:05:22.790Z,12.04
2019-02-02T13:10:28.009Z,11.76
2019-02-02T13:15:24.914Z,11.81
2019-02-02T13:20:22.056Z,11.77
2019-02-02T13:25:25.309Z,11.66
2019-02-02T13:30:34.389Z,11.66
2019-02-02T13:35:34.666Z,11.79
2019-02-02T13:40:31.592Z,11.84
2019-02-02T13:45:28.622Z,12.05
2019-02-02T13:50:25.636Z,11.80
2019-02-02T13:55:22.762Z,11.72
2019-02-02T14:00:28.993Z,11.78
2019-02-02T14:05:26.104Z,11.83
2019-02-02T14:10:26.972Z,11.72
2019-02-02T14:15:23.877Z,11.69
2019-02-02T14:20:21.237Z,11.43
2019-02-02T14:25:18.248Z,11.32
2019-02-02T14:30:21.333Z,11.43
2019-02-02T14:35:24.425Z,11.39
2019-02-02T14:40:21.336Z,11.40
2019-02-02T14:45:27.229Z,11.34
2019-02-02T14:50:23.117Z,11.31
2019-02-02T14:55:23.788Z,11.07
2019-02-02T15:00:29.652Z,11.12
2019-02-02T15:05:26.876Z,11.14
2019-02-02T15:10:24.041Z,11.12
2019-02-02T15:15:20.943Z,10.99
2019-02-02T15:20:27.801Z,10.97
2019-02-02T15:25:24.695Z,10.75
2019-02-02T15:30:28.349Z,10.76
2019-02-02T15:35:26.205Z,10.85
2019-02-02T15:40:23.138Z,10.74
2019-02-02T15:45:29.084Z,10.97
2019-02-02T15:50:25.992Z,10.81
2019-02-02T15:55:24.039Z,10.84
2019-02-02T16:00:32.560Z,11.10
2019-02-02T16:05:29.799Z,11.08
2019-02-02T16:10:30.148Z,11.13
2019-02-02T16:15:27.055Z,11.13
2019-02-02T16:20:41.911Z,11.15
2019-02-02T16:25:38.112Z,11.16
2019-02-02T16:30:35.057Z,11.19
2019-02-02T16:35:32.488Z,11.08
2019-02-02T16:40:30.536Z,11.15
2019-02-02T16:45:30.859Z,11.12
2019-02-02T16:50:28.396Z,11.18
2019-02-02T16:55:25.412Z,11.17
2019-02-02T17:00:33.080Z,11.17
2019-02-02T17:05:30.125Z,11.29
2019-02-02T17:10:33.885Z,11.04
2019-02-02T17:15:30.824Z,11.14
2019-02-02T17:20:39.792Z,11.08
2019-02-02T17:25:36.794Z,11.26
2019-02-02T17:30:33.750Z,11.22
2019-02-02T17:35:30.943Z,11.21
2019-02-02T17:40:29.510Z,11.15
2019-02-02T17:45:26.423Z,11.11
2019-02-02T17:50:28.300Z,11.23
2019-02-02T17:55:25.344Z,11.19
2019-02-02T18:00:33.675Z,11.35
2019-02-02T18:05:30.572Z,11.38
2019-02-02T18:10:27.533Z,11.36
2019-02-02T18:15:24.444Z,11.26
2019-02-02T18:20:21.384Z,11.21
2019-02-02T18:25:18.505Z,11.17
2019-02-02T18:30:27.057Z,11.12
2019-02-02T18:35:24.273Z,11.26
2019-02-02T18:40:23.479Z,11.08
2019-02-02T18:45:27.522Z,11.21
2019-02-02T18:50:24.447Z,11.24
2019-02-02T18:55:26.129Z,11.11
2019-02-02T19:00:23.153Z,11.32
2019-02-02T19:05:20.208Z,11.13
2019-02-02T19:10:31.497Z,11.46
2019-02-02T19:15:28.590Z,11.43
2019-02-02T19:20:25.536Z,11.60
2019-02-02T19:25:22.435Z,11.53
2019-02-02T19:30:31.615Z,11.49
2019-02-02T19:35:28.529Z,11.54
2019-02-02T19:40:26.302Z,11.48
2019-02-02T19:45:26.512Z,11.44
2019-02-02T19:50:25.780Z,11.44
2019-02-02T19:55:22.876Z,11.40
2019-02-02T20:00:26.718Z,11.36
2019-02-02T20:05:28.801Z,11.35
2019-02-02T20:10:22.704Z,11.45
2019-02-02T20:15:25.894Z,11.32
2019-02-02T20:20:25.714Z,11.30
2019-02-02T20:25:22.627Z,11.35
2019-02-02T20:30:31.464Z,11.24
2019-02-02T20:35:39.783Z,11.06
2019-02-02T20:40:27.261Z,11.10
2019-02-02T20:45:28.462Z,10.83
2019-02-02T20:50:25.433Z,10.91
2019-02-02T20:55:32.127Z,10.86
2019-02-02T21:00:30.347Z,11.04
2019-02-02T21:05:27.264Z,10.98
2019-02-02T21:10:25.006Z,11.10
2019-02-02T21:15:22.201Z,11.00
2019-02-02T21:20:28.716Z,11.17
2019-02-02T21:25:25.629Z,11.05
2019-02-02T21:30:30.129Z,11.14
2019-02-02T21:35:27.237Z,11.10
2019-02-02T21:40:26.873Z,11.19
2019-02-02T21:45:25.513Z,10.98
2019-02-02T21:50:24.493Z,10.97
2019-02-02T21:55:26.855Z,11.20
2019-02-02T22:00:30.859Z,11.19
2019-02-02T22:05:27.857Z,11.15
2019-02-02T22:10:25.141Z,11.22
2019-02-02T22:15:27.564Z,11.25
2019-02-02T22:20:24.513Z,11.17
2019-02-02T22:25:27.733Z,11.37
2019-02-02T22:30:31.680Z,11.26
2019-02-02T22:35:28.602Z,11.43
2019-02-02T22:40:27.474Z,11.30
2019-02-02T22:45:24.384Z,11.47
2019-02-02T22:50:24.079Z,11.43
2019-02-02T22:55:22.885Z,11.57
2019-02-02T23:00:55.915Z,11.45
2019-02-02T23:06:09.796Z,11.51
2019-02-02T23:11:30.596Z,11.13
2019-02-02T23:16:27.522Z,10.92
2019-02-02T23:21:24.863Z,10.76
2019-02-02T23:26:21.872Z,10.59
2019-02-02T23:31:19.022Z,10.41
2019-02-02T23:36:15.946Z,10.17
2019-02-02T23:41:12.935Z,10.02
2019-02-02T23:46:09.845Z,9.78
2019-02-02T23:51:06.817Z,9.90
2019-02-02T23:56:04.132Z,10.20
